sensor_id;sensor_type;location;lat;lon;timestamp;pressure;altitude;pressure_sealevel;temperature;humidity
2785;BME280;57944;48.722;9.316;2022-11-20T00:01:50;97547.31;;;4.38;100.00
2785;BME280;57944;48.722;9.316;2022-11-20T00:04:20;97549.81;;;4.38;100.00
2785;BME280;57944;48.722;9.316;2022-11-20T00:06:50;97550.16;;;4.35;100.00
2785;BME280;57944;48.722;9.316;2022-11-20T00:09:20;97554.25;;;4.28;100.00
2785;BME280;57944;48.722;9.316;2022-11-20T00:11:50;97554.91;;;4.21;100.00
2785;BME280;57944;48.722;9.316;2022-11-20T00:14:20;97552.72;;;4.18;100.00
2785;BME280;57944;48.722;9.316;2022-11-20T00:16:53;97546.38;;;4.22;100.00
2785;BME280;57944;48.722;9.316;2022-11-20T00:19:23;97552.38;;;4.30;100.00
2785;BME280;57944;48.722;9.316;2022-11-20T00:21:53;97555.69;;;4.22;100.00
2785;BME280;57944;48.722;9.316;2022-11-20T00:24:23;97557.44;;;4.21;100.00
2785;BME280;57944;48.722;9.316;2022-11-20T00:26:54;97559.66;;;4.16;100.00
2785;BME280;57944;48.722;9.316;2022-11-20T00:29:24;97557.09;;;4.24;100.00
2785;BME280;57944;48.722;9.316;2022-11-20T00:31:56;97552.38;;;4.30;100.00
2785;BME280;57944;48.722;9.316;2022-11-20T00:34:26;97558.34;;;4.29;100.00
2785;BME280;57944;48.722;9.316;2022-11-20T00:36:56;97557.88;;;4.33;100.00
2785;BME280;57944;48.722;9.316;2022-11-20T00:39:26;97559.75;;;4.31;100.00
2785;BME280;57944;48.722;9.316;2022-11-20T00:41:56;97558.94;;;4.39;100.00
2785;BME280;57944;48.722;9.316;2022-11-20T00:44:27;97550.75;;;4.37;100.00
2785;BME280;57944;48.722;9.316;2022-11-20T00:46:59;97554.53;;;4.41;100.00
2785;BME280;57944;48.722;9.316;2022-11-20T00:49:29;97557.66;;;4.43;100.00
2785;BME280;57944;48.722;9.316;2022-11-20T00:51:59;97557.38;;;4.46;100.00
2785;BME280;57944;48.722;9.316;2022-11-20T00:54:29;97566.34;;;4.48;100.00
2785;BME280;57944;48.722;9.316;2022-11-20T00:57:00;97565.06;;;4.53;100.00
2785;BME280;57944;48.722;9.316;2022-11-20T00:59:30;97571.84;;;4.52;100.00
2785;BME280;57944;48.722;9.316;2022-11-20T01:02:02;97571.97;;;4.59;100.00
2785;BME280;57944;48.722;9.316;2022-11-20T01:04:32;97573.09;;;4.56;100.00
2785;BME280;57944;48.722;9.316;2022-11-20T01:07:03;97572.41;;;4.62;100.00
2785;BME280;57944;48.722;9.316;2022-11-20T01:09:33;97578.59;;;4.60;100.00
2785;BME280;57944;48.722;9.316;2022-11-20T01:12:05;97573.56;;;4.60;100.00
2785;BME280;57944;48.722;9.316;2022-11-20T01:14:36;97581.91;;;4.60;100.00
2785;BME280;57944;48.722;9.316;2022-11-20T01:17:08;97574.94;;;4.62;100.00
2785;BME280;57944;48.722;9.316;2022-11-20T01:19:39;97570.84;;;4.61;100.00
2785;BME280;57944;48.722;9.316;2022-11-20T01:22:09;97576.19;;;4.66;100.00
2785;BME280;57944;48.722;9.316;2022-11-20T01:24:39;97577.31;;;4.64;100.00
2785;BME280;57944;48.722;9.316;2022-11-20T01:27:09;97585.34;;;4.67;100.00
2785;BME280;57944;48.722;9.316;2022-11-20T01:29:39;97585.97;;;4.69;100.00
2785;BME280;57944;48.722;9.316;2022-11-20T01:32:12;97586.44;;;4.65;100.00
2785;BME280;57944;48.722;9.316;2022-11-20T01:34:42;97584.53;;;4.75;100.00
2785;BME280;57944;48.722;9.316;2022-11-20T01:37:12;97585.19;;;4.69;100.00
2785;BME280;57944;48.722;9.316;2022-11-20T01:39:42;97590.22;;;4.77;100.00
2785;BME280;57944;48.722;9.316;2022-11-20T01:42:12;97587.84;;;4.76;100.00
2785;BME280;57944;48.722;9.316;2022-11-20T01:44:58;97589.44;;;4.77;100.00
2785;BME280;57944;48.722;9.316;2022-11-20T01:47:36;97579.31;;;4.77;100.00
2785;BME280;57944;48.722;9.316;2022-11-20T01:50:15;97573.19;;;4.71;100.00
2785;BME280;57944;48.722;9.316;2022-11-20T01:52:54;97577.44;;;4.70;100.00
2785;BME280;57944;48.722;9.316;2022-11-20T01:55:30;97568.97;;;4.63;100.00
2785;BME280;57944;48.722;9.316;2022-11-20T01:58:02;97573.22;;;4.63;100.00
2785;BME280;57944;48.722;9.316;2022-11-20T02:00:34;97571.34;;;4.57;100.00
2785;BME280;57944;48.722;9.316;2022-11-20T02:03:11;97575.63;;;4.48;100.00
2785;BME280;57944;48.722;9.316;2022-11-20T02:05:47;97565.09;;;4.36;100.00
2785;BME280;57944;48.722;9.316;2022-11-20T02:08:21;97574.91;;;4.31;100.00
2785;BME280;57944;48.722;9.316;2022-11-20T02:10:53;97575.88;;;4.22;100.00
2785;BME280;57944;48.722;9.316;2022-11-20T02:13:23;97579.50;;;4.19;100.00
2785;BME280;57944;48.722;9.316;2022-11-20T02:16:10;97578.56;;;4.12;100.00
2785;BME280;57944;48.722;9.316;2022-11-20T02:18:44;97592.13;;;4.11;100.00
2785;BME280;57944;48.722;9.316;2022-11-20T02:21:40;97590.56;;;4.10;100.00
2785;BME280;57944;48.722;9.316;2022-11-20T02:24:17;97594.31;;;4.14;100.00
2785;BME280;57944;48.722;9.316;2022-11-20T02:26:53;97588.03;;;4.18;100.00
2785;BME280;57944;48.722;9.316;2022-11-20T02:29:27;97589.44;;;4.29;100.00
2785;BME280;57944;48.722;9.316;2022-11-20T02:32:01;97583.25;;;4.32;100.00
2785;BME280;57944;48.722;9.316;2022-11-20T02:34:32;97582.63;;;4.30;100.00
2785;BME280;57944;48.722;9.316;2022-11-20T02:37:02;97582.94;;;4.35;100.00
2785;BME280;57944;48.722;9.316;2022-11-20T02:39:35;97581.34;;;4.34;100.00
2785;BME280;57944;48.722;9.316;2022-11-20T02:42:05;97586.72;;;4.31;100.00
2785;BME280;57944;48.722;9.316;2022-11-20T02:44:35;97583.88;;;4.34;100.00
2785;BME280;57944;48.722;9.316;2022-11-20T02:47:06;97580.72;;;4.32;100.00
2785;BME280;57944;48.722;9.316;2022-11-20T02:49:36;97579.47;;;4.28;100.00
2785;BME280;57944;48.722;9.316;2022-11-20T02:52:06;97579.16;;;4.22;100.00
2785;BME280;57944;48.722;9.316;2022-11-20T02:54:39;97584.84;;;4.24;100.00
2785;BME280;57944;48.722;9.316;2022-11-20T02:57:09;97587.53;;;4.23;100.00
2785;BME280;57944;48.722;9.316;2022-11-20T02:59:39;97592.41;;;4.33;100.00
2785;BME280;57944;48.722;9.316;2022-11-20T03:02:09;97586.59;;;4.24;100.00
2785;BME280;57944;48.722;9.316;2022-11-20T03:04:39;97594.63;;;4.28;100.00
2785;BME280;57944;48.722;9.316;2022-11-20T03:07:09;97585.19;;;4.21;100.00
2785;BME280;57944;48.722;9.316;2022-11-20T03:09:42;97592.75;;;4.13;100.00
2785;BME280;57944;48.722;9.316;2022-11-20T03:12:14;97593.53;;;4.14;100.00
2785;BME280;57944;48.722;9.316;2022-11-20T03:14:44;97585.19;;;4.05;100.00
2785;BME280;57944;48.722;9.316;2022-11-20T03:17:19;97587.88;;;4.03;100.00
2785;BME280;57944;48.722;9.316;2022-11-20T03:19:49;97586.00;;;3.97;100.00
2785;BME280;57944;48.722;9.316;2022-11-20T03:22:19;97586.94;;;3.96;100.00
2785;BME280;57944;48.722;9.316;2022-11-20T03:24:52;97579.97;;;4.07;100.00
2785;BME280;57944;48.722;9.316;2022-11-20T03:27:22;97583.75;;;4.19;100.00
2785;BME280;57944;48.722;9.316;2022-11-20T03:29:52;97577.44;;;4.23;100.00
2785;BME280;57944;48.722;9.316;2022-11-20T03:32:22;97573.47;;;4.37;100.00
2785;BME280;57944;48.722;9.316;2022-11-20T03:34:52;97586.38;;;4.42;100.00
2785;BME280;57944;48.722;9.316;2022-11-20T03:37:23;97579.25;;;4.45;100.00
2785;BME280;57944;48.722;9.316;2022-11-20T03:39:55;97587.47;;;4.39;100.00
2785;BME280;57944;48.722;9.316;2022-11-20T03:42:25;97583.84;;;4.42;100.00
2785;BME280;57944;48.722;9.316;2022-11-20T03:45:09;97586.22;;;4.52;100.00
2785;BME280;57944;48.722;9.316;2022-11-20T03:47:39;97583.50;;;4.53;100.00
2785;BME280;57944;48.722;9.316;2022-11-20T03:50:12;97582.41;;;4.56;100.00
2785;BME280;57944;48.722;9.316;2022-11-20T03:52:42;97575.31;;;4.43;100.00
2785;BME280;57944;48.722;9.316;2022-11-20T03:55:15;97582.81;;;4.20;100.00
2785;BME280;57944;48.722;9.316;2022-11-20T03:57:45;97585.97;;;4.06;100.00
2785;BME280;57944;48.722;9.316;2022-11-20T04:00:16;97579.84;;;3.92;100.00
2785;BME280;57944;48.722;9.316;2022-11-20T04:02:46;97576.41;;;3.76;100.00
2785;BME280;57944;48.722;9.316;2022-11-20T04:05:16;97572.78;;;3.71;100.00
2785;BME280;57944;48.722;9.316;2022-11-20T04:07:46;97581.13;;;3.79;100.00
2785;BME280;57944;48.722;9.316;2022-11-20T04:10:19;97577.19;;;3.93;100.00
2785;BME280;57944;48.722;9.316;2022-11-20T04:12:49;97582.06;;;3.95;100.00
2785;BME280;57944;48.722;9.316;2022-11-20T04:15:19;97573.38;;;4.06;100.00
2785;BME280;57944;48.722;9.316;2022-11-20T04:17:49;97573.22;;;4.07;100.00
2785;BME280;57944;48.722;9.316;2022-11-20T04:20:19;97572.25;;;4.16;100.00
2785;BME280;57944;48.722;9.316;2022-11-20T04:22:49;97574.44;;;4.28;100.00
2785;BME280;57944;48.722;9.316;2022-11-20T04:25:25;97565.75;;;4.30;100.00
2785;BME280;57944;48.722;9.316;2022-11-20T04:27:55;97571.44;;;4.32;100.00
2785;BME280;57944;48.722;9.316;2022-11-20T04:30:25;97567.50;;;4.30;100.00
2785;BME280;57944;48.722;9.316;2022-11-20T04:32:55;97567.50;;;4.30;100.00
2785;BME280;57944;48.722;9.316;2022-11-20T04:35:25;97561.97;;;4.26;100.00
2785;BME280;57944;48.722;9.316;2022-11-20T04:37:55;97561.97;;;4.26;100.00
2785;BME280;57944;48.722;9.316;2022-11-20T04:40:27;97563.25;;;4.30;100.00
2785;BME280;57944;48.722;9.316;2022-11-20T04:42:58;97556.31;;;4.24;100.00
2785;BME280;57944;48.722;9.316;2022-11-20T04:45:28;97556.03;;;4.19;100.00
2785;BME280;57944;48.722;9.316;2022-11-20T04:47:58;97554.28;;;4.19;100.00
2785;BME280;57944;48.722;9.316;2022-11-20T04:50:28;97560.25;;;4.27;100.00
2785;BME280;57944;48.722;9.316;2022-11-20T04:52:58;97557.88;;;4.25;100.00
2785;BME280;57944;48.722;9.316;2022-11-20T04:55:30;97555.69;;;4.22;100.00
2785;BME280;57944;48.722;9.316;2022-11-20T04:58:00;97552.06;;;4.24;100.00
2785;BME280;57944;48.722;9.316;2022-11-20T05:00:30;97558.34;;;4.29;100.00
2785;BME280;57944;48.722;9.316;2022-11-20T05:03:00;97556.56;;;4.37;100.00
2785;BME280;57944;48.722;9.316;2022-11-20T05:05:31;97560.72;;;4.30;100.00
2785;BME280;57944;48.722;9.316;2022-11-20T05:08:03;97554.53;;;4.41;100.00
2785;BME280;57944;48.722;9.316;2022-11-20T05:10:36;97566.50;;;4.47;100.00
2785;BME280;57944;48.722;9.316;2022-11-20T05:13:06;97556.56;;;4.45;100.00
2785;BME280;57944;48.722;9.316;2022-11-20T05:15:36;97558.59;;;4.50;100.00
2785;BME280;57944;48.722;9.316;2022-11-20T05:18:06;97564.56;;;4.57;100.00
2785;BME280;57944;48.722;9.316;2022-11-20T05:20:36;97562.66;;;4.59;100.00
2785;BME280;57944;48.722;9.316;2022-11-20T05:23:06;97556.78;;;4.67;100.00
2785;BME280;57944;48.722;9.316;2022-11-20T05:25:38;97567.63;;;4.76;100.00
2785;BME280;57944;48.722;9.316;2022-11-20T05:28:08;97566.66;;;4.85;100.00
2785;BME280;57944;48.722;9.316;2022-11-20T05:30:38;97560.66;;;4.86;100.00
2785;BME280;57944;48.722;9.316;2022-11-20T05:33:09;97564.44;;;4.82;100.00
2785;BME280;57944;48.722;9.316;2022-11-20T05:35:39;97560.94;;;4.91;100.00
2785;BME280;57944;48.722;9.316;2022-11-20T05:38:09;97557.47;;;4.92;100.00
2785;BME280;57944;48.722;9.316;2022-11-20T05:40:42;97563.44;;;4.99;100.00
2785;BME280;57944;48.722;9.316;2022-11-20T05:43:12;97561.66;;;5.08;100.00
2785;BME280;57944;48.722;9.316;2022-11-20T05:45:42;97558.25;;;4.92;100.00
2785;BME280;57944;48.722;9.316;2022-11-20T05:48:12;97555.91;;;4.91;100.00
2785;BME280;57944;48.722;9.316;2022-11-20T05:50:42;97557.28;;;5.02;100.00
2785;BME280;57944;48.722;9.316;2022-11-20T05:53:13;97561.13;;;5.12;100.00
2785;BME280;57944;48.722;9.316;2022-11-20T05:55:46;97556.38;;;5.18;100.00
2785;BME280;57944;48.722;9.316;2022-11-20T05:58:16;97563.91;;;5.26;100.00
2785;BME280;57944;48.722;9.316;2022-11-20T06:00:46;97563.44;;;5.22;100.00
2785;BME280;57944;48.722;9.316;2022-11-20T06:03:16;97565.63;;;5.25;100.00
2785;BME280;57944;48.722;9.316;2022-11-20T06:05:46;97560.53;;;5.10;100.00
2785;BME280;57944;48.722;9.316;2022-11-20T06:08:16;97562.53;;;5.15;100.00
2785;BME280;57944;48.722;9.316;2022-11-20T06:10:48;97560.16;;;5.22;100.00
2785;BME280;57944;48.722;9.316;2022-11-20T06:13:18;97563.91;;;5.26;100.00
2785;BME280;57944;48.722;9.316;2022-11-20T06:15:49;97562.00;;;5.28;100.00
2785;BME280;57944;48.722;9.316;2022-11-20T06:18:20;97562.34;;;5.25;100.00
2785;BME280;57944;48.722;9.316;2022-11-20T06:20:59;97560.28;;;5.20;100.00
2785;BME280;57944;48.722;9.316;2022-11-20T06:23:31;97560.53;;;5.10;100.00
2785;BME280;57944;48.722;9.316;2022-11-20T06:26:07;97564.56;;;4.97;100.00
2785;BME280;57944;48.722;9.316;2022-11-20T06:28:38;97554.56;;;5.03;100.00
2785;BME280;57944;48.722;9.316;2022-11-20T06:31:12;97558.06;;;5.02;100.00
2785;BME280;57944;48.722;9.316;2022-11-20T06:33:43;97560.88;;;5.07;100.00
2785;BME280;57944;48.722;9.316;2022-11-20T06:36:16;97562.13;;;5.03;100.00
2785;BME280;57944;48.722;9.316;2022-11-20T06:38:47;97559.03;;;4.93;100.00
2785;BME280;57944;48.722;9.316;2022-11-20T06:41:22;97562.97;;;4.96;100.00
2785;BME280;57944;48.722;9.316;2022-11-20T06:43:52;97558.72;;;4.96;100.00
2785;BME280;57944;48.722;9.316;2022-11-20T06:46:22;97558.72;;;4.96;100.00
2785;BME280;57944;48.722;9.316;2022-11-20T06:48:52;97566.56;;;5.01;100.00
2785;BME280;57944;48.722;9.316;2022-11-20T06:51:22;97559.94;;;5.00;100.00
2785;BME280;57944;48.722;9.316;2022-11-20T06:53:53;97573.31;;;5.09;100.00
2785;BME280;57944;48.722;9.316;2022-11-20T06:56:26;97565.69;;;5.17;100.00
2785;BME280;57944;48.722;9.316;2022-11-20T06:58:56;97560.06;;;5.07;100.00
2785;BME280;57944;48.722;9.316;2022-11-20T07:01:26;97567.78;;;5.13;100.00
2785;BME280;57944;48.722;9.316;2022-11-20T07:03:56;97573.13;;;5.19;100.00
2785;BME280;57944;48.722;9.316;2022-11-20T07:06:27;97573.06;;;5.27;100.00
2785;BME280;57944;48.722;9.316;2022-11-20T07:08:57;97572.38;;;5.33;100.00
2785;BME280;57944;48.722;9.316;2022-11-20T07:11:30;97573.16;;;5.33;100.00
2785;BME280;57944;48.722;9.316;2022-11-20T07:14:00;97572.66;;;5.38;100.00
2785;BME280;57944;48.722;9.316;2022-11-20T07:16:30;97581.88;;;5.31;100.00
2785;BME280;57944;48.722;9.316;2022-11-20T07:19:00;97578.56;;;5.30;100.00
2785;BME280;57944;48.722;9.316;2022-11-20T07:21:30;97585.56;;;5.43;100.00
2785;BME280;57944;48.722;9.316;2022-11-20T07:24:00;97583.59;;;5.53;100.00
2785;BME280;57944;48.722;9.316;2022-11-20T07:26:32;97583.75;;;5.75;100.00
2785;BME280;57944;48.722;9.316;2022-11-20T07:29:03;97580.72;;;5.79;100.00
2785;BME280;57944;48.722;9.316;2022-11-20T07:31:33;97580.47;;;5.89;100.00
2785;BME280;57944;48.722;9.316;2022-11-20T07:34:03;97579.47;;;5.98;100.00
2785;BME280;57944;48.722;9.316;2022-11-20T07:36:33;97585.06;;;6.09;100.00
2785;BME280;57944;48.722;9.316;2022-11-20T07:39:03;97581.41;;;6.26;100.00
2785;BME280;57944;48.722;9.316;2022-11-20T07:41:36;97584.06;;;6.33;100.00
2785;BME280;57944;48.722;9.316;2022-11-20T07:44:06;97591.81;;;6.31;100.00
2785;BME280;57944;48.722;9.316;2022-11-20T07:46:36;97587.34;;;6.48;100.00
2785;BME280;57944;48.722;9.316;2022-11-20T07:49:06;97589.28;;;6.61;100.00
2785;BME280;57944;48.722;9.316;2022-11-20T07:51:36;97580.72;;;6.62;100.00
2785;BME280;57944;48.722;9.316;2022-11-20T07:54:06;97590.41;;;6.73;100.00
2785;BME280;57944;48.722;9.316;2022-11-20T07:56:39;97584.63;;;6.94;100.00
2785;BME280;57944;48.722;9.316;2022-11-20T07:59:09;97592.09;;;7.02;100.00
2785;BME280;57944;48.722;9.316;2022-11-20T08:01:39;97584.31;;;7.04;100.00
2785;BME280;57944;48.722;9.316;2022-11-20T08:04:10;97586.13;;;7.10;100.00
2785;BME280;57944;48.722;9.316;2022-11-20T08:06:41;97593.16;;;7.29;100.00
2785;BME280;57944;48.722;9.316;2022-11-20T08:09:11;97595.56;;;7.37;100.00
2785;BME280;57944;48.722;9.316;2022-11-20T08:11:43;97597.03;;;7.25;100.00
2785;BME280;57944;48.722;9.316;2022-11-20T08:14:26;97610.00;;;7.01;100.00
2785;BME280;57944;48.722;9.316;2022-11-20T08:16:56;97603.47;;;7.28;100.00
2785;BME280;57944;48.722;9.316;2022-11-20T08:19:26;97606.84;;;7.13;100.00
2785;BME280;57944;48.722;9.316;2022-11-20T08:21:56;97606.00;;;7.28;100.00
2785;BME280;57944;48.722;9.316;2022-11-20T08:24:27;97605.31;;;6.98;100.00
2785;BME280;57944;48.722;9.316;2022-11-20T08:27:00;97608.16;;;7.09;100.00
2785;BME280;57944;48.722;9.316;2022-11-20T08:29:30;97617.03;;;7.20;100.00
2785;BME280;57944;48.722;9.316;2022-11-20T08:32:00;97604.44;;;7.27;100.00
2785;BME280;57944;48.722;9.316;2022-11-20T08:34:30;97607.22;;;7.32;100.00
2785;BME280;57944;48.722;9.316;2022-11-20T08:37:02;97610.53;;;7.54;100.00
2785;BME280;57944;48.722;9.316;2022-11-20T08:39:32;97613.28;;;7.52;100.00
2785;BME280;57944;48.722;9.316;2022-11-20T08:42:06;97612.66;;;7.29;100.00
2785;BME280;57944;48.722;9.316;2022-11-20T08:44:36;97615.28;;;7.21;100.00
2785;BME280;57944;48.722;9.316;2022-11-20T08:47:07;97607.22;;;7.32;100.00
2785;BME280;57944;48.722;9.316;2022-11-20T08:49:37;97610.22;;;7.21;100.00
2785;BME280;57944;48.722;9.316;2022-11-20T08:52:07;97602.03;;;7.04;100.00
2785;BME280;57944;48.722;9.316;2022-11-20T08:54:37;97602.66;;;7.06;100.00
2785;BME280;57944;48.722;9.316;2022-11-20T08:57:10;97598.78;;;7.10;100.00
2785;BME280;57944;48.722;9.316;2022-11-20T08:59:40;97602.94;;;6.96;100.00
2785;BME280;57944;48.722;9.316;2022-11-20T09:02:30;97606.75;;;7.22;100.00
2785;BME280;57944;48.722;9.316;2022-11-20T09:05:01;97618.13;;;7.32;100.00
2785;BME280;57944;48.722;9.316;2022-11-20T09:07:32;97618.69;;;7.49;100.00
2785;BME280;57944;48.722;9.316;2022-11-20T09:10:02;97616.72;;;7.45;100.00
2785;BME280;57944;48.722;9.316;2022-11-20T09:12:55;97625.50;;;7.49;100.00
2785;BME280;57944;48.722;9.316;2022-11-20T09:15:26;97618.75;;;7.77;100.00
2785;BME280;57944;48.722;9.316;2022-11-20T09:18:00;97624.66;;;7.84;100.00
2785;BME280;57944;48.722;9.316;2022-11-20T09:20:31;97624.38;;;7.94;100.00
2785;BME280;57944;48.722;9.316;2022-11-20T09:23:02;97635.75;;;8.05;100.00
2785;BME280;57944;48.722;9.316;2022-11-20T09:25:32;97621.50;;;8.04;100.00
2785;BME280;57944;48.722;9.316;2022-11-20T09:28:05;97629.97;;;7.90;100.00
2785;BME280;57944;48.722;9.316;2022-11-20T09:30:35;97635.00;;;7.83;100.00
2785;BME280;57944;48.722;9.316;2022-11-20T09:33:06;97631.72;;;7.46;100.00
2785;BME280;57944;48.722;9.316;2022-11-20T09:35:36;97630.34;;;7.65;100.00
2785;BME280;57944;48.722;9.316;2022-11-20T09:38:07;97622.97;;;7.49;100.00
2785;BME280;57944;48.722;9.316;2022-11-20T09:40:44;97628.31;;;7.75;100.00
2785;BME280;57944;48.722;9.316;2022-11-20T09:43:24;97637.75;;;7.88;100.00
2785;BME280;57944;48.722;9.316;2022-11-20T09:46:09;97635.06;;;7.68;100.00
2785;BME280;57944;48.722;9.316;2022-11-20T09:48:59;97637.47;;;7.76;100.00
2785;BME280;57944;48.722;9.316;2022-11-20T09:51:43;97631.34;;;7.28;100.00
2785;BME280;57944;48.722;9.316;2022-11-20T09:54:18;97630.31;;;7.22;100.00
2785;BME280;57944;48.722;9.316;2022-11-20T09:56:54;97646.66;;;7.56;100.00
2785;BME280;57944;48.722;9.316;2022-11-20T09:59:40;97641.88;;;7.46;100.00
2785;BME280;57944;48.722;9.316;2022-11-20T10:02:28;97627.78;;;7.44;100.00
2785;BME280;57944;48.722;9.316;2022-11-20T10:05:06;97625.25;;;7.44;100.00
2785;BME280;57944;48.722;9.316;2022-11-20T10:07:48;97631.91;;;7.88;100.00
2785;BME280;57944;48.722;9.316;2022-11-20T10:10:38;97633.00;;;7.78;100.00
2785;BME280;57944;48.722;9.316;2022-11-20T10:13:32;97633.00;;;7.78;100.00
2785;BME280;57944;48.722;9.316;2022-11-20T10:16:25;97642.41;;;7.84;100.00
2785;BME280;57944;48.722;9.316;2022-11-20T10:19:23;97638.31;;;7.62;100.00
2785;BME280;57944;48.722;9.316;2022-11-20T10:22:14;97634.88;;;7.70;100.00
2785;BME280;57944;48.722;9.316;2022-11-20T10:24:57;97632.34;;;7.48;100.00
2785;BME280;57944;48.722;9.316;2022-11-20T10:28:21;97638.66;;;7.37;100.00
2785;BME280;57944;48.722;9.316;2022-11-20T10:31:02;97642.41;;;7.42;100.00
2785;BME280;57944;48.722;9.316;2022-11-20T10:33:40;97645.13;;;7.40;100.00
2785;BME280;57944;48.722;9.316;2022-11-20T10:36:38;97652.56;;;7.42;100.00
2785;BME280;57944;48.722;9.316;2022-11-20T10:39:20;97644.50;;;7.16;100.00
2785;BME280;57944;48.722;9.316;2022-11-20T10:41:53;97642.78;;;6.87;100.00
2785;BME280;57944;48.722;9.316;2022-11-20T10:44:28;97641.13;;;6.65;100.00
2785;BME280;57944;48.722;9.316;2022-11-20T10:47:14;97649.50;;;6.65;100.00
2785;BME280;57944;48.722;9.316;2022-11-20T10:49:52;97659.22;;;6.47;100.00
2785;BME280;57944;48.722;9.316;2022-11-20T10:52:33;97649.84;;;6.33;100.00
2785;BME280;57944;48.722;9.316;2022-11-20T10:55:23;97653.31;;;6.17;100.00
2785;BME280;57944;48.722;9.316;2022-11-20T10:58:10;97648.81;;;6.27;100.00
2785;BME280;57944;48.722;9.316;2022-11-20T11:00:44;97641.72;;;6.22;100.00
2785;BME280;57944;48.722;9.316;2022-11-20T11:03:24;97642.75;;;6.13;100.00
2785;BME280;57944;48.722;9.316;2022-11-20T11:06:08;97639.16;;;6.08;100.00
2785;BME280;57944;48.722;9.316;2022-11-20T11:08:40;97641.41;;;6.02;100.00
2785;BME280;57944;48.722;9.316;2022-11-20T11:11:21;97638.13;;;6.17;100.00
2785;BME280;57944;48.722;9.316;2022-11-20T11:13:52;97636.81;;;6.21;100.00
2785;BME280;57944;48.722;9.316;2022-11-20T11:16:25;97627.22;;;6.16;100.00
2785;BME280;57944;48.722;9.316;2022-11-20T11:19:05;97626.81;;;6.28;100.00
2785;BME280;57944;48.722;9.316;2022-11-20T11:21:38;97625.69;;;6.45;100.00
2785;BME280;57944;48.722;9.316;2022-11-20T11:24:21;97621.81;;;6.34;100.00
2785;BME280;57944;48.722;9.316;2022-11-20T11:27:13;97612.59;;;6.56;100.00
2785;BME280;57944;48.722;9.316;2022-11-20T11:29:46;97611.19;;;6.83;100.00
2785;BME280;57944;48.722;9.316;2022-11-20T11:32:20;97607.25;;;7.17;100.00
2785;BME280;57944;48.722;9.316;2022-11-20T11:35:04;97608.09;;;7.24;100.00
2785;BME280;57944;48.722;9.316;2022-11-20T11:37:40;97606.69;;;7.36;100.00
2785;BME280;57944;48.722;9.316;2022-11-20T11:40:11;97601.25;;;7.39;100.00
2785;BME280;57944;48.722;9.316;2022-11-20T11:42:56;97596.53;;;7.36;100.00
2785;BME280;57944;48.722;9.316;2022-11-20T11:45:28;97594.75;;;7.15;100.00
2785;BME280;57944;48.722;9.316;2022-11-20T11:47:58;97588.31;;;7.13;100.00
2785;BME280;57944;48.722;9.316;2022-11-20T11:50:30;97587.31;;;6.92;100.00
2785;BME280;57944;48.722;9.316;2022-11-20T11:53:12;97582.25;;;6.92;100.00
2785;BME280;57944;48.722;9.316;2022-11-20T11:55:46;97581.59;;;6.69;100.00
2785;BME280;57944;48.722;9.316;2022-11-20T11:58:38;97574.28;;;6.44;100.00
2785;BME280;57944;48.722;9.316;2022-11-20T12:01:26;97574.28;;;6.44;100.00
2785;BME280;57944;48.722;9.316;2022-11-20T12:04:05;97567.59;;;6.73;100.00
2785;BME280;57944;48.722;9.316;2022-11-20T12:06:48;97560.78;;;6.88;100.00
2785;BME280;57944;48.722;9.316;2022-11-20T12:09:28;97563.06;;;6.83;100.00
2785;BME280;57944;48.722;9.316;2022-11-20T12:12:10;97567.03;;;6.92;100.00
2785;BME280;57944;48.722;9.316;2022-11-20T12:14:47;97562.84;;;7.00;100.00
2785;BME280;57944;48.722;9.316;2022-11-20T12:17:19;97561.28;;;7.20;100.00
2785;BME280;57944;48.722;9.316;2022-11-20T12:19:49;97562.56;;;7.52;100.00
2785;BME280;57944;48.722;9.316;2022-11-20T12:22:31;97551.34;;;7.68;100.00
2785;BME280;57944;48.722;9.316;2022-11-20T12:25:16;97558.44;;;8.01;100.00
2785;BME280;57944;48.722;9.316;2022-11-20T12:28:10;97557.03;;;8.61;100.00
2785;BME280;57944;48.722;9.316;2022-11-20T12:31:03;97550.47;;;8.93;100.00
2785;BME280;57944;48.722;9.316;2022-11-20T12:34:00;97557.38;;;9.20;100.00
2785;BME280;57944;48.722;9.316;2022-11-20T12:36:43;97546.16;;;8.81;100.00
2785;BME280;57944;48.722;9.316;2022-11-20T12:39:34;97540.75;;;8.49;100.00
2785;BME280;57944;48.722;9.316;2022-11-20T12:42:48;97540.91;;;8.95;100.00
2785;BME280;57944;48.722;9.316;2022-11-20T12:48:50;97542.56;;;8.68;100.00
2785;BME280;57944;48.722;9.316;2022-11-20T12:51:48;97546.63;;;9.17;100.00
2785;BME280;57944;48.722;9.316;2022-11-20T12:57:49;97553.59;;;8.89;100.00
2785;BME280;57944;48.722;9.316;2022-11-20T13:00:23;97545.00;;;8.97;100.00
2785;BME280;57944;48.722;9.316;2022-11-20T13:03:16;97552.59;;;8.83;100.00
2785;BME280;57944;48.722;9.316;2022-11-20T13:06:00;97549.41;;;8.68;100.00
2785;BME280;57944;48.722;9.316;2022-11-20T13:08:37;97548.03;;;8.65;100.00
2785;BME280;57944;48.722;9.316;2022-11-20T13:11:17;97533.47;;;8.39;100.00
2785;BME280;57944;48.722;9.316;2022-11-20T13:14:14;97543.44;;;8.41;100.00
2785;BME280;57944;48.722;9.316;2022-11-20T13:16:53;97540.00;;;8.20;100.00
2785;BME280;57944;48.722;9.316;2022-11-20T13:19:32;97539.59;;;8.17;100.00
2785;BME280;57944;48.722;9.316;2022-11-20T13:22:02;97536.78;;;8.05;100.00
2785;BME280;57944;48.722;9.316;2022-11-20T13:24:33;97541.22;;;8.31;100.00
2785;BME280;57944;48.722;9.316;2022-11-20T13:27:19;97540.47;;;8.37;100.00
2785;BME280;57944;48.722;9.316;2022-11-20T13:30:14;97538.31;;;8.76;100.00
2785;BME280;57944;48.722;9.316;2022-11-20T13:32:53;97538.56;;;8.46;100.00
2785;BME280;57944;48.722;9.316;2022-11-20T13:35:28;97528.88;;;8.63;100.00
2785;BME280;57944;48.722;9.316;2022-11-20T13:38:06;97530.09;;;8.67;100.00
2785;BME280;57944;48.722;9.316;2022-11-20T13:40:49;97524.38;;;8.58;100.00
2785;BME280;57944;48.722;9.316;2022-11-20T13:43:27;97524.66;;;8.83;100.00
2785;BME280;57944;48.722;9.316;2022-11-20T13:46:04;97524.72;;;9.23;100.00
2785;BME280;57944;48.722;9.316;2022-11-20T13:48:40;97520.00;;;9.00;100.00
2785;BME280;57944;48.722;9.316;2022-11-20T13:51:24;97513.72;;;8.96;100.00
2785;BME280;57944;48.722;9.316;2022-11-20T13:54:34;97513.25;;;8.66;100.00
2785;BME280;57944;48.722;9.316;2022-11-20T13:58:15;97511.63;;;8.10;100.00